sensor_id;sensor_type;location;lat;lon;timestamp;temperature;humidity
52273;DHT22;38227;50.942;4.016;2023-04-01T00:00:11;10.80;99.90
52273;DHT22;38227;50.942;4.016;2023-04-01T00:03:23;10.80;99.90
52273;DHT22;38227;50.942;4.016;2023-04-01T00:06:05;10.80;99.90
52273;DHT22;38227;50.942;4.016;2023-04-01T00:08:49;10.70;99.90
52273;DHT22;38227;50.942;4.016;2023-04-01T00:11:22;10.80;99.90
52273;DHT22;38227;50.942;4.016;2023-04-01T00:14:04;10.70;99.90
52273;DHT22;38227;50.942;4.016;2023-04-01T00:17:14;10.80;99.90
52273;DHT22;38227;50.942;4.016;2023-04-01T00:19:58;10.90;99.90
52273;DHT22;38227;50.942;4.016;2023-04-01T00:22:48;10.80;99.90
52273;DHT22;38227;50.942;4.016;2023-04-01T00:25:26;10.70;99.90
52273;DHT22;38227;50.942;4.016;2023-04-01T00:28:16;10.60;99.90
52273;DHT22;38227;50.942;4.016;2023-04-01T00:30:48;10.60;99.90
52273;DHT22;38227;50.942;4.016;2023-04-01T00:33:38;10.60;99.90
52273;DHT22;38227;50.942;4.016;2023-04-01T00:36:15;10.70;99.90
52273;DHT22;38227;50.942;4.016;2023-04-01T00:38:44;10.80;99.90
52273;DHT22;38227;50.942;4.016;2023-04-01T00:41:18;10.80;99.90
52273;DHT22;38227;50.942;4.016;2023-04-01T00:43:50;10.80;99.90
52273;DHT22;38227;50.942;4.016;2023-04-01T00:46:25;10.80;99.90
52273;DHT22;38227;50.942;4.016;2023-04-01T00:48:56;10.90;99.90
52273;DHT22;38227;50.942;4.016;2023-04-01T00:51:36;10.90;99.90
52273;DHT22;38227;50.942;4.016;2023-04-01T00:54:05;10.80;99.90
52273;DHT22;38227;50.942;4.016;2023-04-01T00:56:44;10.80;99.90
52273;DHT22;38227;50.942;4.016;2023-04-01T00:59:28;10.80;99.90
52273;DHT22;38227;50.942;4.016;2023-04-01T01:02:02;10.90;99.90
52273;DHT22;38227;50.942;4.016;2023-04-01T01:04:35;10.90;99.90
52273;DHT22;38227;50.942;4.016;2023-04-01T01:10:25;10.90;99.90
52273;DHT22;38227;50.942;4.016;2023-04-01T01:13:31;10.70;99.90
52273;DHT22;38227;50.942;4.016;2023-04-01T01:16:24;10.70;99.90
52273;DHT22;38227;50.942;4.016;2023-04-01T01:25:30;10.70;99.90
52273;DHT22;38227;50.942;4.016;2023-04-01T01:32:16;10.70;99.90
52273;DHT22;38227;50.942;4.016;2023-04-01T01:39:07;10.70;99.90
52273;DHT22;38227;50.942;4.016;2023-04-01T01:41:49;10.50;99.90
52273;DHT22;38227;50.942;4.016;2023-04-01T01:44:35;10.40;99.90
52273;DHT22;38227;50.942;4.016;2023-04-01T01:47:11;10.40;99.90
52273;DHT22;38227;50.942;4.016;2023-04-01T01:49:51;10.60;99.90
52273;DHT22;38227;50.942;4.016;2023-04-01T01:52:28;10.60;99.90
52273;DHT22;38227;50.942;4.016;2023-04-01T01:55:34;10.50;99.90
52273;DHT22;38227;50.942;4.016;2023-04-01T01:58:35;10.60;99.90
52273;DHT22;38227;50.942;4.016;2023-04-01T02:01:14;10.70;99.90
52273;DHT22;38227;50.942;4.016;2023-04-01T02:04:14;10.60;99.90
52273;DHT22;38227;50.942;4.016;2023-04-01T02:07:00;10.60;99.90
52273;DHT22;38227;50.942;4.016;2023-04-01T02:09:38;10.50;99.90
52273;DHT22;38227;50.942;4.016;2023-04-01T02:12:15;10.50;99.90
52273;DHT22;38227;50.942;4.016;2023-04-01T02:15:13;10.50;99.90
52273;DHT22;38227;50.942;4.016;2023-04-01T02:17:52;10.40;99.90
52273;DHT22;38227;50.942;4.016;2023-04-01T02:20:24;10.50;99.90
52273;DHT22;38227;50.942;4.016;2023-04-01T02:23:07;10.60;99.90
52273;DHT22;38227;50.942;4.016;2023-04-01T02:25:38;10.70;99.90
52273;DHT22;38227;50.942;4.016;2023-04-01T02:28:11;10.60;99.90
52273;DHT22;38227;50.942;4.016;2023-04-01T02:30:44;10.60;99.90
52273;DHT22;38227;50.942;4.016;2023-04-01T02:33:16;10.40;99.90
52273;DHT22;38227;50.942;4.016;2023-04-01T02:36:05;10.50;99.90
52273;DHT22;38227;50.942;4.016;2023-04-01T02:38:37;10.50;99.90
52273;DHT22;38227;50.942;4.016;2023-04-01T02:41:07;10.60;99.90
52273;DHT22;38227;50.942;4.016;2023-04-01T02:43:38;10.50;99.90
52273;DHT22;38227;50.942;4.016;2023-04-01T02:46:09;10.60;99.90
52273;DHT22;38227;50.942;4.016;2023-04-01T02:48:48;10.60;99.90
52273;DHT22;38227;50.942;4.016;2023-04-01T02:51:21;10.50;99.90
52273;DHT22;38227;50.942;4.016;2023-04-01T02:53:53;10.50;99.90
52273;DHT22;38227;50.942;4.016;2023-04-01T02:56:21;10.50;99.90
52273;DHT22;38227;50.942;4.016;2023-04-01T02:58:56;10.50;99.90
52273;DHT22;38227;50.942;4.016;2023-04-01T03:01:35;10.50;99.90
52273;DHT22;38227;50.942;4.016;2023-04-01T03:04:23;10.50;99.90
52273;DHT22;38227;50.942;4.016;2023-04-01T03:06:59;10.50;99.90
52273;DHT22;38227;50.942;4.016;2023-04-01T03:09:50;10.50;99.90
52273;DHT22;38227;50.942;4.016;2023-04-01T03:12:20;10.60;99.90
52273;DHT22;38227;50.942;4.016;2023-04-01T03:15:01;10.60;99.90
52273;DHT22;38227;50.942;4.016;2023-04-01T03:17:59;10.60;99.90
52273;DHT22;38227;50.942;4.016;2023-04-01T03:20:30;10.60;99.90
52273;DHT22;38227;50.942;4.016;2023-04-01T03:23:21;10.70;99.90
52273;DHT22;38227;50.942;4.016;2023-04-01T03:25:51;10.60;99.90
52273;DHT22;38227;50.942;4.016;2023-04-01T03:28:24;10.80;99.90
52273;DHT22;38227;50.942;4.016;2023-04-01T03:31:05;10.70;99.90
52273;DHT22;38227;50.942;4.016;2023-04-01T03:33:54;10.80;99.90
52273;DHT22;38227;50.942;4.016;2023-04-01T03:36:53;10.70;99.90
52273;DHT22;38227;50.942;4.016;2023-04-01T03:39:41;10.60;99.90
52273;DHT22;38227;50.942;4.016;2023-04-01T03:42:15;10.60;99.90
52273;DHT22;38227;50.942;4.016;2023-04-01T03:45:12;10.70;99.90
52273;DHT22;38227;50.942;4.016;2023-04-01T03:48:22;10.60;99.90
52273;DHT22;38227;50.942;4.016;2023-04-01T03:50:54;10.70;99.90
52273;DHT22;38227;50.942;4.016;2023-04-01T03:53:43;10.70;99.90
52273;DHT22;38227;50.942;4.016;2023-04-01T03:56:19;10.60;99.90
52273;DHT22;38227;50.942;4.016;2023-04-01T03:58:58;10.50;99.90
52273;DHT22;38227;50.942;4.016;2023-04-01T04:01:39;10.50;99.90
52273;DHT22;38227;50.942;4.016;2023-04-01T04:04:31;10.50;99.90
52273;DHT22;38227;50.942;4.016;2023-04-01T04:07:10;10.60;99.90
52273;DHT22;38227;50.942;4.016;2023-04-01T04:09:49;10.50;99.90
52273;DHT22;38227;50.942;4.016;2023-04-01T04:12:24;10.60;99.90
52273;DHT22;38227;50.942;4.016;2023-04-01T04:15:11;10.50;99.90
52273;DHT22;38227;50.942;4.016;2023-04-01T04:17:48;10.40;99.90
52273;DHT22;38227;50.942;4.016;2023-04-01T04:20:29;10.40;99.90
52273;DHT22;38227;50.942;4.016;2023-04-01T04:23:19;10.40;99.90
52273;DHT22;38227;50.942;4.016;2023-04-01T04:26:07;10.50;99.90
52273;DHT22;38227;50.942;4.016;2023-04-01T04:28:40;10.50;99.90
52273;DHT22;38227;50.942;4.016;2023-04-01T04:31:31;10.30;99.90
52273;DHT22;38227;50.942;4.016;2023-04-01T04:34:19;10.40;99.90
52273;DHT22;38227;50.942;4.016;2023-04-01T04:36:53;10.40;99.90
52273;DHT22;38227;50.942;4.016;2023-04-01T04:39:43;10.40;99.90
52273;DHT22;38227;50.942;4.016;2023-04-01T04:42:12;10.50;99.90
52273;DHT22;38227;50.942;4.016;2023-04-01T04:44:49;10.40;99.90
52273;DHT22;38227;50.942;4.016;2023-04-01T04:47:38;10.30;99.90
52273;DHT22;38227;50.942;4.016;2023-04-01T04:50:09;10.50;99.90
52273;DHT22;38227;50.942;4.016;2023-04-01T04:52:48;10.50;99.90
52273;DHT22;38227;50.942;4.016;2023-04-01T04:55:27;10.60;99.90
52273;DHT22;38227;50.942;4.016;2023-04-01T04:58:05;10.70;99.90
52273;DHT22;38227;50.942;4.016;2023-04-01T05:00:57;10.70;99.90
52273;DHT22;38227;50.942;4.016;2023-04-01T05:03:47;10.60;99.90
52273;DHT22;38227;50.942;4.016;2023-04-01T05:06:37;10.50;99.90
52273;DHT22;38227;50.942;4.016;2023-04-01T05:09:08;10.50;99.90
52273;DHT22;38227;50.942;4.016;2023-04-01T05:11:44;10.50;99.90
52273;DHT22;38227;50.942;4.016;2023-04-01T05:14:23;10.50;99.90
52273;DHT22;38227;50.942;4.016;2023-04-01T05:17:13;10.50;99.90
52273;DHT22;38227;50.942;4.016;2023-04-01T05:20:05;10.50;99.90
52273;DHT22;38227;50.942;4.016;2023-04-01T05:22:46;10.50;99.90
52273;DHT22;38227;50.942;4.016;2023-04-01T05:25:15;10.50;99.90
52273;DHT22;38227;50.942;4.016;2023-04-01T05:27:57;10.50;99.90
52273;DHT22;38227;50.942;4.016;2023-04-01T05:30:42;10.50;99.90
52273;DHT22;38227;50.942;4.016;2023-04-01T05:33:13;10.30;99.90
52273;DHT22;38227;50.942;4.016;2023-04-01T05:35:42;10.30;99.90
52273;DHT22;38227;50.942;4.016;2023-04-01T05:38:12;10.30;99.90
52273;DHT22;38227;50.942;4.016;2023-04-01T05:40:47;10.30;99.90
52273;DHT22;38227;50.942;4.016;2023-04-01T05:43:35;10.30;99.90
52273;DHT22;38227;50.942;4.016;2023-04-01T05:46:07;10.40;99.90
52273;DHT22;38227;50.942;4.016;2023-04-01T05:48:39;10.50;99.90
52273;DHT22;38227;50.942;4.016;2023-04-01T05:51:15;10.50;99.90
52273;DHT22;38227;50.942;4.016;2023-04-01T05:53:55;10.40;99.90
52273;DHT22;38227;50.942;4.016;2023-04-01T05:56:44;10.40;99.90
52273;DHT22;38227;50.942;4.016;2023-04-01T05:59:16;10.50;99.90
52273;DHT22;38227;50.942;4.016;2023-04-01T06:02:02;10.60;99.90
52273;DHT22;38227;50.942;4.016;2023-04-01T06:04:41;10.50;99.90
52273;DHT22;38227;50.942;4.016;2023-04-01T06:07:14;10.50;99.90
52273;DHT22;38227;50.942;4.016;2023-04-01T06:09:45;10.60;99.90
52273;DHT22;38227;50.942;4.016;2023-04-01T06:12:50;10.50;99.90
52273;DHT22;38227;50.942;4.016;2023-04-01T06:22:13;10.40;99.90
52273;DHT22;38227;50.942;4.016;2023-04-01T06:28:41;10.40;99.90
52273;DHT22;38227;50.942;4.016;2023-04-01T06:35:38;10.20;99.90
52273;DHT22;38227;50.942;4.016;2023-04-01T06:39:00;10.30;99.90
52273;DHT22;38227;50.942;4.016;2023-04-01T06:45:27;10.30;99.90
52273;DHT22;38227;50.942;4.016;2023-04-01T06:48:40;10.20;99.90
52273;DHT22;38227;50.942;4.016;2023-04-01T06:51:46;10.40;99.90
52273;DHT22;38227;50.942;4.016;2023-04-01T06:54:48;10.30;99.90
52273;DHT22;38227;50.942;4.016;2023-04-01T06:57:43;10.50;99.90
52273;DHT22;38227;50.942;4.016;2023-04-01T07:00:45;10.40;99.90
52273;DHT22;38227;50.942;4.016;2023-04-01T07:06:58;10.40;99.90
52273;DHT22;38227;50.942;4.016;2023-04-01T07:09:41;10.40;99.90
52273;DHT22;38227;50.942;4.016;2023-04-01T07:12:54;10.30;99.90
52273;DHT22;38227;50.942;4.016;2023-04-01T07:15:37;10.40;99.90
52273;DHT22;38227;50.942;4.016;2023-04-01T07:18:29;10.50;99.90
52273;DHT22;38227;50.942;4.016;2023-04-01T07:21:49;10.50;99.90
52273;DHT22;38227;50.942;4.016;2023-04-01T07:24:36;10.50;99.90
52273;DHT22;38227;50.942;4.016;2023-04-01T07:27:28;10.50;99.90
52273;DHT22;38227;50.942;4.016;2023-04-01T07:30:21;10.60;99.90
52273;DHT22;38227;50.942;4.016;2023-04-01T07:33:26;10.60;99.90
52273;DHT22;38227;50.942;4.016;2023-04-01T07:36:19;10.60;99.90
52273;DHT22;38227;50.942;4.016;2023-04-01T07:39:28;10.60;99.90
52273;DHT22;38227;50.942;4.016;2023-04-01T07:45:52;10.70;99.90
52273;DHT22;38227;50.942;4.016;2023-04-01T07:55:09;11.00;99.90
52273;DHT22;38227;50.942;4.016;2023-04-01T07:58:25;11.00;99.90
52273;DHT22;38227;50.942;4.016;2023-04-01T08:07:39;11.10;99.90
52273;DHT22;38227;50.942;4.016;2023-04-01T08:17:08;11.00;99.90
52273;DHT22;38227;50.942;4.016;2023-04-01T08:20:49;11.10;99.90
52273;DHT22;38227;50.942;4.016;2023-04-01T08:26:17;10.90;99.90
52273;DHT22;38227;50.942;4.016;2023-04-01T08:29:19;10.90;99.90
52273;DHT22;38227;50.942;4.016;2023-04-01T08:38:38;10.80;99.90
52273;DHT22;38227;50.942;4.016;2023-04-01T08:41:37;10.90;99.90
52273;DHT22;38227;50.942;4.016;2023-04-01T08:44:56;11.00;99.90
52273;DHT22;38227;50.942;4.016;2023-04-01T08:51:22;11.10;99.90
52273;DHT22;38227;50.942;4.016;2023-04-01T08:54:09;11.20;99.90
52273;DHT22;38227;50.942;4.016;2023-04-01T09:03:41;11.20;99.90
52273;DHT22;38227;50.942;4.016;2023-04-01T09:20:29;11.30;99.90
52273;DHT22;38227;50.942;4.016;2023-04-01T09:54:01;11.50;99.90
52273;DHT22;38227;50.942;4.016;2023-04-01T10:08:14;11.80;99.90
52273;DHT22;38227;50.942;4.016;2023-04-01T10:18:54;12.10;99.90
52273;DHT22;38227;50.942;4.016;2023-04-01T10:35:57;12.00;99.90
52273;DHT22;38227;50.942;4.016;2023-04-01T11:23:53;12.40;99.90
52273;DHT22;38227;50.942;4.016;2023-04-01T11:36:03;12.20;99.90
52273;DHT22;38227;50.942;4.016;2023-04-01T11:48:34;12.00;99.90
52273;DHT22;38227;50.942;4.016;2023-04-01T11:51:37;12.20;99.90
52273;DHT22;38227;50.942;4.016;2023-04-01T11:54:47;12.40;99.90
52273;DHT22;38227;50.942;4.016;2023-04-01T12:04:58;12.40;99.90
52273;DHT22;38227;50.942;4.016;2023-04-01T12:11:19;12.10;99.90
52273;DHT22;38227;50.942;4.016;2023-04-01T12:14:05;12.20;99.90
52273;DHT22;38227;50.942;4.016;2023-04-01T12:31:20;11.80;99.90
52273;DHT22;38227;50.942;4.016;2023-04-01T12:38:16;11.70;99.90
52273;DHT22;38227;50.942;4.016;2023-04-01T12:41:14;11.60;99.90
52273;DHT22;38227;50.942;4.016;2023-04-01T12:44:33;11.60;99.90
52273;DHT22;38227;50.942;4.016;2023-04-01T12:51:21;11.50;99.90
52273;DHT22;38227;50.942;4.016;2023-04-01T12:54:38;11.60;99.90
52273;DHT22;38227;50.942;4.016;2023-04-01T12:58:02;11.70;99.90
52273;DHT22;38227;50.942;4.016;2023-04-01T13:05:02;11.80;99.90
52273;DHT22;38227;50.942;4.016;2023-04-01T13:36:57;11.30;99.90
52273;DHT22;38227;50.942;4.016;2023-04-01T13:42:59;11.50;99.90
52273;DHT22;38227;50.942;4.016;2023-04-01T13:55:30;11.50;99.90
52273;DHT22;38227;50.942;4.016;2023-04-01T14:01:50;11.60;99.90
52273;DHT22;38227;50.942;4.016;2023-04-01T14:11:11;11.30;99.90
52273;DHT22;38227;50.942;4.016;2023-04-01T14:17:31;11.50;99.90
52273;DHT22;38227;50.942;4.016;2023-04-01T14:20:33;11.60;99.90
52273;DHT22;38227;50.942;4.016;2023-04-01T14:26:56;11.30;99.90
52273;DHT22;38227;50.942;4.016;2023-04-01T14:29:58;11.30;99.90
52273;DHT22;38227;50.942;4.016;2023-04-01T14:38:47;11.60;99.90
52273;DHT22;38227;50.942;4.016;2023-04-01T14:42:03;11.50;99.90
52273;DHT22;38227;50.942;4.016;2023-04-01T14:54:35;11.50;99.90
52273;DHT22;38227;50.942;4.016;2023-04-01T14:57:30;11.40;99.90
52273;DHT22;38227;50.942;4.016;2023-04-01T15:00:22;11.40;99.90
52273;DHT22;38227;50.942;4.016;2023-04-01T15:03:04;11.40;99.90
52273;DHT22;38227;50.942;4.016;2023-04-01T15:06:10;11.50;99.90
52273;DHT22;38227;50.942;4.016;2023-04-01T15:09:03;11.60;99.90
52273;DHT22;38227;50.942;4.016;2023-04-01T15:15:29;11.60;99.90
52273;DHT22;38227;50.942;4.016;2023-04-01T15:25:24;11.80;99.90
52273;DHT22;38227;50.942;4.016;2023-04-01T15:35:37;11.70;99.90
52273;DHT22;38227;50.942;4.016;2023-04-01T15:38:26;11.60;99.90
52273;DHT22;38227;50.942;4.016;2023-04-01T15:41:45;11.60;99.90
52273;DHT22;38227;50.942;4.016;2023-04-01T15:55:14;11.30;99.90
52273;DHT22;38227;50.942;4.016;2023-04-01T16:05:09;11.40;99.90
52273;DHT22;38227;50.942;4.016;2023-04-01T16:08:49;11.40;99.90
52273;DHT22;38227;50.942;4.016;2023-04-01T16:12:15;11.40;99.90
52273;DHT22;38227;50.942;4.016;2023-04-01T16:30:00;11.00;99.90
52273;DHT22;38227;50.942;4.016;2023-04-01T16:37:23;11.00;99.90
52273;DHT22;38227;50.942;4.016;2023-04-01T16:47:06;11.00;99.90
52273;DHT22;38227;50.942;4.016;2023-04-01T16:50:48;11.00;99.90
52273;DHT22;38227;50.942;4.016;2023-04-01T16:53:49;11.00;99.90
52273;DHT22;38227;50.942;4.016;2023-04-01T17:00:47;10.90;99.90
52273;DHT22;38227;50.942;4.016;2023-04-01T17:03:32;10.80;99.90
52273;DHT22;38227;50.942;4.016;2023-04-01T17:06:45;10.90;99.90
52273;DHT22;38227;50.942;4.016;2023-04-01T17:23:33;10.60;99.90
52273;DHT22;38227;50.942;4.016;2023-04-01T17:26:57;10.60;99.90
52273;DHT22;38227;50.942;4.016;2023-04-01T17:37:19;10.50;99.90
52273;DHT22;38227;50.942;4.016;2023-04-01T17:40:35;10.40;99.90
52273;DHT22;38227;50.942;4.016;2023-04-01T17:47:01;10.40;99.90
52273;DHT22;38227;50.942;4.016;2023-04-01T17:49:54;10.50;99.90
52273;DHT22;38227;50.942;4.016;2023-04-01T17:56:08;10.40;99.90
52273;DHT22;38227;50.942;4.016;2023-04-01T17:59:00;10.30;99.90
52273;DHT22;38227;50.942;4.016;2023-04-01T18:01:48;10.30;99.90
52273;DHT22;38227;50.942;4.016;2023-04-01T18:11:34;10.20;99.90
52273;DHT22;38227;50.942;4.016;2023-04-01T18:17:58;10.20;99.90
52273;DHT22;38227;50.942;4.016;2023-04-01T18:27:33;10.10;99.90
52273;DHT22;38227;50.942;4.016;2023-04-01T18:30:30;10.10;99.90
52273;DHT22;38227;50.942;4.016;2023-04-01T18:33:23;10.10;99.90
52273;DHT22;38227;50.942;4.016;2023-04-01T18:39:22;10.10;99.90
52273;DHT22;38227;50.942;4.016;2023-04-01T18:42:23;10.10;99.90
52273;DHT22;38227;50.942;4.016;2023-04-01T18:45:21;10.10;99.90
52273;DHT22;38227;50.942;4.016;2023-04-01T18:51:21;10.20;99.90
52273;DHT22;38227;50.942;4.016;2023-04-01T18:54:23;10.20;99.90
52273;DHT22;38227;50.942;4.016;2023-04-01T18:57:14;10.20;99.90
52273;DHT22;38227;50.942;4.016;2023-04-01T19:00:21;10.10;99.90
52273;DHT22;38227;50.942;4.016;2023-04-01T19:03:07;10.10;99.90
52273;DHT22;38227;50.942;4.016;2023-04-01T19:05:41;10.10;99.90
52273;DHT22;38227;50.942;4.016;2023-04-01T19:08:33;10.00;99.90
52273;DHT22;38227;50.942;4.016;2023-04-01T19:46:19;10.00;99.90
52273;DHT22;38227;50.942;4.016;2023-04-01T19:52:45;9.90;99.90
52273;DHT22;38227;50.942;4.016;2023-04-01T20:06:43;10.10;99.90
52273;DHT22;38227;50.942;4.016;2023-04-01T20:10:10;10.10;99.90
52273;DHT22;38227;50.942;4.016;2023-04-01T20:20:30;10.10;99.90
52273;DHT22;38227;50.942;4.016;2023-04-01T20:23:39;9.90;99.90
52273;DHT22;38227;50.942;4.016;2023-04-01T20:29:56;9.90;99.90
52273;DHT22;38227;50.942;4.016;2023-04-01T20:46:30;9.90;99.90
52273;DHT22;38227;50.942;4.016;2023-04-01T20:49:56;9.90;99.90
52273;DHT22;38227;50.942;4.016;2023-04-01T20:53:05;9.90;99.90
52273;DHT22;38227;50.942;4.016;2023-04-01T20:56:06;9.90;99.90
52273;DHT22;38227;50.942;4.016;2023-04-01T20:59:35;10.00;99.90
52273;DHT22;38227;50.942;4.016;2023-04-01T21:02:53;10.00;99.90
52273;DHT22;38227;50.942;4.016;2023-04-01T21:09:06;10.00;99.90
52273;DHT22;38227;50.942;4.016;2023-04-01T21:33:48;9.90;99.90
52273;DHT22;38227;50.942;4.016;2023-04-01T21:55:17;9.90;99.90
52273;DHT22;38227;50.942;4.016;2023-04-01T22:02:20;9.90;99.90
52273;DHT22;38227;50.942;4.016;2023-04-01T22:05:30;10.10;99.90
52273;DHT22;38227;50.942;4.016;2023-04-01T22:12:02;9.90;99.90
52273;DHT22;38227;50.942;4.016;2023-04-01T22:14:54;10.10;99.90
52273;DHT22;38227;50.942;4.016;2023-04-01T22:21:41;10.00;99.90
52273;DHT22;38227;50.942;4.016;2023-04-01T22:27:50;10.20;99.90
52273;DHT22;38227;50.942;4.016;2023-04-01T22:37:20;10.00;99.90
52273;DHT22;38227;50.942;4.016;2023-04-01T22:52:15;10.10;99.90
52273;DHT22;38227;50.942;4.016;2023-04-01T22:55:00;10.10;99.90
52273;DHT22;38227;50.942;4.016;2023-04-01T22:57:40;10.10;99.90
52273;DHT22;38227;50.942;4.016;2023-04-01T23:03:30;10.20;99.90
52273;DHT22;38227;50.942;4.016;2023-04-01T23:06:03;10.30;99.90
52273;DHT22;38227;50.942;4.016;2023-04-01T23:09:23;10.20;99.90
52273;DHT22;38227;50.942;4.016;2023-04-01T23:12:26;10.20;99.90
52273;DHT22;38227;50.942;4.016;2023-04-01T23:15:00;10.30;99.90
52273;DHT22;38227;50.942;4.016;2023-04-01T23:30:19;10.30;99.90
52273;DHT22;38227;50.942;4.016;2023-04-01T23:36:18;10.20;99.90
52273;DHT22;38227;50.942;4.016;2023-04-01T23:38:49;10.20;99.90
52273;DHT22;38227;50.942;4.016;2023-04-01T23:41:22;10.10;99.90
52273;DHT22;38227;50.942;4.016;2023-04-01T23:44:12;10.10;99.90
52273;DHT22;38227;50.942;4.016;2023-04-01T23:46:44;10.20;99.90
52273;DHT22;38227;50.942;4.016;2023-04-01T23:49:21;10.30;99.90
52273;DHT22;38227;50.942;4.016;2023-04-01T23:52:02;10.10;99.90
52273;DHT22;38227;50.942;4.016;2023-04-01T23:54:43;10.10;99.90
52273;DHT22;38227;50.942;4.016;2023-04-01T23:57:16;10.20;99.90
